Time;durP1;ratioP1;P1;durP2;ratioP2;P2;SDS_P1;SDS_P2;PMS_P1;PMS_P2;Temp;Humidity;BMP_temperature;BMP_pressure;BME280_temperature;BME280_humidity;BME280_pressure;Samples;Min_cycle;Max_cycle;Signal;HPM_P1;HPM_P2
2023/09/14 00:00:28;;;;;;;4.20;0.90;;;;;;;17.70;88.21;100314.94;109792;1276;22449;-77
2023/09/14 00:03:19;;;;;;;3.30;0.90;;;;;;;17.69;88.43;100312.13;109796;1282;22198;-77
2023/09/14 00:05:51;;;;;;;3.70;1.00;;;;;;;17.68;88.75;100305.63;109772;1277;22316;-77
2023/09/14 00:08:23;;;;;;;3.00;0.80;;;;;;;17.67;88.70;100303.16;109762;1277;22206;-77
2023/09/14 00:10:58;;;;;;;4.50;0.90;;;;;;;17.66;88.97;100307.69;109767;1277;22319;-77
2023/09/14 00:13:28;;;;;;;4.10;1.00;;;;;;;17.65;89.30;100309.80;109765;1277;22337;-77
2023/09/14 00:16:00;;;;;;;3.90;1.00;;;;;;;17.65;89.26;100312.77;109766;1283;22148;-77
2023/09/14 00:18:30;;;;;;;3.90;1.00;;;;;;;17.66;89.42;100310.72;109782;1284;22320;-77
2023/09/14 00:21:02;;;;;;;3.50;1.10;;;;;;;17.66;89.46;100314.00;109754;1284;22665;-77
2023/09/14 00:23:32;;;;;;;5.00;1.20;;;;;;;17.66;89.45;100315.61;109765;1280;22717;-77
2023/09/14 00:26:03;;;;;;;4.60;1.00;;;;;;;17.66;89.56;100316.00;109728;1284;22259;-77
2023/09/14 00:28:34;;;;;;;4.10;1.00;;;;;;;17.65;89.67;100311.96;109815;1283;22167;-77
2023/09/14 00:31:04;;;;;;;4.10;1.00;;;;;;;17.64;89.92;100317.03;109764;1284;22280;-77
2023/09/14 00:33:35;;;;;;;4.30;1.00;;;;;;;17.61;90.01;100314.29;109755;1284;22306;-77
2023/09/14 00:36:07;;;;;;;3.70;0.90;;;;;;;17.59;90.09;100312.20;109744;1276;22192;-77
2023/09/14 00:38:38;;;;;;;4.80;1.10;;;;;;;17.57;90.25;100312.08;109762;1274;22308;-77
2023/09/14 00:41:08;;;;;;;4.70;1.20;;;;;;;17.55;90.49;100316.14;109777;1274;22326;-77
2023/09/14 00:43:40;;;;;;;5.80;1.00;;;;;;;17.52;90.74;100313.92;109792;1277;22357;-77
2023/09/14 00:46:11;;;;;;;3.20;1.00;;;;;;;17.50;90.87;100322.50;109765;1276;22393;-77
2023/09/14 00:48:42;;;;;;;2.70;0.90;;;;;;;17.46;91.15;100324.10;109766;1277;22495;-77
2023/09/14 00:51:13;;;;;;;9.10;1.10;;;;;;;17.42;91.15;100325.30;109757;1276;22193;-77
2023/09/14 00:53:47;;;;;;;3.00;0.90;;;;;;;17.39;91.33;100329.68;109749;1279;22198;-77
2023/09/14 00:56:18;;;;;;;3.10;1.00;;;;;;;17.36;91.72;100331.77;109747;1282;22203;-77
2023/09/14 00:58:49;;;;;;;8.70;1.20;;;;;;;17.31;92.02;100331.95;109760;1277;22332;-77
2023/09/14 01:01:20;;;;;;;4.10;1.10;;;;;;;17.26;91.94;100332.23;109766;1280;22240;-77
2023/09/14 01:03:51;;;;;;;5.00;1.50;;;;;;;17.23;92.08;100334.21;109776;1278;22152;-76
2023/09/14 01:06:24;;;;;;;5.70;1.30;;;;;;;17.21;92.05;100334.28;109752;1283;22220;-77
2023/09/14 01:08:55;;;;;;;6.50;1.30;;;;;;;17.18;92.28;100338.30;109754;1282;22904;-77
2023/09/14 01:11:26;;;;;;;6.00;1.40;;;;;;;17.15;92.37;100338.88;109776;1277;22163;-77
2023/09/14 01:14:08;;;;;;;5.60;1.40;;;;;;;17.13;92.45;100339.05;109772;1277;22319;-77
2023/09/14 01:16:45;;;;;;;6.90;1.30;;;;;;;17.12;92.34;100343.77;109870;1281;23200;-77
2023/09/14 01:19:32;;;;;;;4.30;1.10;;;;;;;17.12;92.37;100342.99;109825;1276;22987;-77
2023/09/14 01:22:22;;;;;;;5.00;1.30;;;;;;;17.09;92.54;100338.23;109708;1284;22220;-77
2023/09/14 01:25:03;;;;;;;3.70;1.10;;;;;;;17.05;92.66;100339.91;109727;1277;22359;-77
2023/09/14 01:27:34;;;;;;;4.70;1.40;;;;;;;17.01;92.60;100345.22;109752;1284;22997;-77
2023/09/14 01:30:06;;;;;;;6.30;1.30;;;;;;;16.96;92.65;100346.48;109759;1276;22247;-77
2023/09/14 01:32:37;;;;;;;4.70;1.30;;;;;;;16.92;92.68;100350.95;109732;1284;22155;-77
2023/09/14 01:35:09;;;;;;;3.30;1.10;;;;;;;16.88;92.75;100341.80;109730;1279;22378;-77
2023/09/14 01:37:40;;;;;;;4.50;1.40;;;;;;;16.83;92.87;100341.73;109768;1284;22410;-77
2023/09/14 01:40:12;;;;;;;5.20;1.30;;;;;;;16.78;92.96;100343.08;109768;1284;22332;-77
2023/09/14 01:42:43;;;;;;;4.40;1.40;;;;;;;16.73;93.04;100343.60;109797;1277;22184;-77
2023/09/14 01:45:15;;;;;;;6.50;1.60;;;;;;;16.71;93.11;100347.46;109724;1277;23348;-77
2023/09/14 01:47:46;;;;;;;5.70;1.40;;;;;;;16.69;93.17;100349.33;109771;1276;22379;-77
2023/09/14 01:50:17;;;;;;;6.00;1.60;;;;;;;16.69;93.23;100348.91;109765;1284;22294;-77
2023/09/14 01:52:49;;;;;;;4.60;1.20;;;;;;;16.72;93.36;100346.27;109741;1277;22178;-77
2023/09/14 01:55:20;;;;;;;4.80;1.30;;;;;;;16.73;93.26;100354.63;109755;1284;22932;-77
2023/09/14 01:57:50;;;;;;;5.70;1.40;;;;;;;16.74;93.27;100354.88;109728;1279;22957;-77
2023/09/14 02:00:21;;;;;;;4.90;1.50;;;;;;;16.74;93.37;100356.92;109733;1285;23091;-77
2023/09/14 02:02:52;;;;;;;4.20;1.20;;;;;;;16.74;93.05;100363.09;109705;1283;23148;-77
2023/09/14 02:05:23;;;;;;;6.60;1.80;;;;;;;16.73;93.38;100364.31;109698;1280;22215;-77
2023/09/14 02:07:54;;;;;;;5.80;1.40;;;;;;;16.73;93.27;100364.73;109728;1285;22215;-77
2023/09/14 02:10:25;;;;;;;6.90;1.60;;;;;;;16.72;93.26;100369.76;109700;1280;22328;-77
2023/09/14 02:12:55;;;;;;;7.00;1.50;;;;;;;16.73;93.41;100372.71;109700;1280;22371;-77
2023/09/14 02:15:26;;;;;;;5.90;1.80;;;;;;;16.74;93.29;100373.23;109706;1285;22557;-77
2023/09/14 02:17:57;;;;;;;4.70;1.50;;;;;;;16.73;93.07;100372.73;109722;1283;23126;-77
2023/09/14 02:20:27;;;;;;;4.70;1.40;;;;;;;16.73;93.17;100371.58;109711;1273;22157;-77
2023/09/14 02:22:58;;;;;;;4.70;1.40;;;;;;;16.72;93.51;100372.17;109734;1285;22277;-77
2023/09/14 02:25:28;;;;;;;6.20;1.50;;;;;;;16.71;93.76;100366.52;109686;1285;22351;-77
2023/09/14 02:27:59;;;;;;;5.50;1.60;;;;;;;16.70;93.46;100368.32;109726;1280;22242;-77
2023/09/14 02:30:30;;;;;;;9.80;2.10;;;;;;;16.70;93.28;100371.30;109710;1280;22398;-77
2023/09/14 02:33:00;;;;;;;5.00;1.70;;;;;;;16.68;93.19;100373.16;109712;1278;22245;-77
2023/09/14 02:35:31;;;;;;;4.70;1.30;;;;;;;16.66;93.00;100369.27;109702;1280;22171;-77
2023/09/14 02:38:02;;;;;;;4.60;1.40;;;;;;;16.63;93.17;100379.18;109728;1285;22730;-77
2023/09/14 02:40:33;;;;;;;5.10;1.60;;;;;;;16.60;93.28;100382.06;109716;1285;22678;-77
2023/09/14 02:43:04;;;;;;;4.90;1.50;;;;;;;16.57;93.31;100382.67;109703;1280;22198;-77
2023/09/14 02:45:35;;;;;;;5.40;1.30;;;;;;;16.56;93.41;100379.95;109681;1285;22156;-77
2023/09/14 02:48:06;;;;;;;5.00;1.40;;;;;;;16.55;93.54;100382.27;109699;1282;22171;-77
2023/09/14 02:50:37;;;;;;;6.90;1.40;;;;;;;16.55;93.44;100380.77;109712;1280;22229;-77
2023/09/14 02:53:08;;;;;;;6.30;1.60;;;;;;;16.56;93.45;100380.98;109712;1280;22317;-77
2023/09/14 02:55:39;;;;;;;6.60;1.60;;;;;;;16.56;93.61;100384.83;109697;1281;22222;-77
2023/09/14 02:58:10;;;;;;;5.80;1.60;;;;;;;16.56;93.81;100395.99;109767;1280;22339;-77
2023/09/14 03:00:41;;;;;;;7.40;1.80;;;;;;;16.55;93.87;100402.45;109768;1282;22344;-77
2023/09/14 03:03:11;;;;;;;5.60;1.50;;;;;;;16.55;94.24;100411.31;109780;1284;23082;-77
2023/09/14 03:05:42;;;;;;;7.40;1.70;;;;;;;16.54;94.55;100417.38;109754;1280;22337;-77
2023/09/14 03:08:13;;;;;;;6.10;1.40;;;;;;;16.54;94.65;100417.16;109776;1270;22185;-77
2023/09/14 03:10:43;;;;;;;7.70;1.80;;;;;;;16.57;94.95;100422.95;109748;1282;22727;-77
2023/09/14 03:13:14;;;;;;;7.30;2.00;;;;;;;16.57;95.00;100428.23;109754;1284;22166;-77
2023/09/14 03:15:45;;;;;;;8.70;1.70;;;;;;;16.59;95.33;100431.82;109745;1274;22156;-77
2023/09/14 03:18:15;;;;;;;7.00;1.80;;;;;;;16.60;95.25;100430.84;109781;1282;22207;-77
2023/09/14 03:20:51;;;;;;;7.30;2.00;;;;;;;16.63;95.56;100434.06;109773;1284;22933;-77
2023/09/14 03:23:23;;;;;;;6.70;2.20;;;;;;;16.66;96.06;100437.08;109763;1277;22148;-77
2023/09/14 03:25:53;;;;;;;7.60;2.10;;;;;;;16.64;96.42;100437.98;109750;1284;22199;-77
2023/09/14 03:28:24;;;;;;;7.50;2.40;;;;;;;16.64;96.62;100441.23;109761;1277;22264;-77
2023/09/14 03:30:55;;;;;;;8.80;2.70;;;;;;;16.65;97.00;100448.66;109753;1280;22209;-77
2023/09/14 03:33:25;;;;;;;7.80;2.50;;;;;;;16.66;97.12;100450.40;109776;1284;22191;-77
2023/09/14 03:35:56;;;;;;;8.40;2.20;;;;;;;16.66;97.38;100448.45;109726;1282;22191;-76
2023/09/14 03:38:27;;;;;;;8.90;2.60;;;;;;;16.67;97.49;100445.93;109812;1266;22358;-76
2023/09/14 03:40:58;;;;;;;5.60;1.80;;;;;;;16.69;97.51;100450.55;109811;1284;22318;-76
2023/09/14 03:43:28;;;;;;;6.60;2.10;;;;;;;16.71;97.51;100447.11;109788;1284;22128;-76
2023/09/14 03:46:00;;;;;;;7.40;2.00;;;;;;;16.74;97.26;100445.71;109790;1280;22155;-76
2023/09/14 03:48:30;;;;;;;8.60;2.60;;;;;;;16.80;97.28;100438.94;109803;1277;22142;-76
2023/09/14 03:51:01;;;;;;;8.00;2.40;;;;;;;16.84;97.32;100441.64;109801;1284;22314;-76
2023/09/14 03:53:32;;;;;;;13.70;3.00;;;;;;;16.87;97.39;100439.46;109791;1284;22136;-76
2023/09/14 03:56:03;;;;;;;7.50;2.30;;;;;;;16.90;97.46;100450.12;109740;1282;22268;-78
2023/09/14 03:58:34;;;;;;;9.30;2.30;;;;;;;16.92;97.47;100451.71;109756;1284;23224;-76
2023/09/14 04:01:05;;;;;;;10.50;2.30;;;;;;;16.94;97.49;100455.55;109697;1277;22251;-78
2023/09/14 04:03:36;;;;;;;9.00;2.60;;;;;;;16.97;97.42;100457.44;109699;1278;22179;-78
2023/09/14 04:06:07;;;;;;;8.70;2.50;;;;;;;17.01;97.57;100461.94;109705;1282;22322;-81
2023/09/14 04:08:37;;;;;;;8.20;2.50;;;;;;;17.04;97.42;100463.00;109736;1283;22307;-80
2023/09/14 04:11:09;;;;;;;8.80;3.20;;;;;;;17.07;97.61;100467.04;107209;1283;22545;-79
2023/09/14 04:13:40;;;;;;;11.90;3.60;;;;;;;17.07;97.56;100472.47;106763;1277;22560;-78
2023/09/14 04:16:12;;;;;;;9.10;2.80;;;;;;;17.08;97.62;100475.48;106756;1277;23179;-77
2023/09/14 04:18:43;;;;;;;9.30;3.20;;;;;;;17.09;97.71;100481.59;106863;1283;22603;-79
2023/09/14 04:21:14;;;;;;;10.40;3.20;;;;;;;17.10;97.82;100485.98;106938;1277;24061;-77
2023/09/14 04:23:46;;;;;;;9.80;3.30;;;;;;;17.10;97.75;100488.36;106906;1277;23039;-77
2023/09/14 04:26:18;;;;;;;9.30;3.10;;;;;;;17.11;97.95;100495.95;106913;1277;22996;-79
2023/09/14 04:28:49;;;;;;;13.10;3.50;;;;;;;17.11;97.94;100493.54;106906;1278;25268;-78
2023/09/14 04:31:19;;;;;;;15.60;4.10;;;;;;;17.12;97.99;100491.44;106974;1276;22537;-77
2023/09/14 04:33:50;;;;;;;10.50;3.80;;;;;;;17.14;97.86;100492.36;106891;1284;22577;-79
2023/09/14 04:36:22;;;;;;;12.00;4.00;;;;;;;17.16;98.17;100494.14;106919;1277;23351;-78
2023/09/14 04:38:53;;;;;;;12.50;4.40;;;;;;;17.15;98.30;100498.04;109776;1284;22960;-80
2023/09/14 04:41:24;;;;;;;12.60;4.70;;;;;;;17.16;98.12;100496.70;109766;1284;23346;-79
2023/09/14 04:43:55;;;;;;;9.40;3.80;;;;;;;17.19;98.16;100501.27;109800;1280;22684;-80
2023/09/14 04:46:27;;;;;;;12.50;4.60;;;;;;;17.21;98.24;100504.42;109770;1284;22196;-80
2023/09/14 04:48:57;;;;;;;14.90;6.60;;;;;;;17.23;98.26;100503.30;109813;1277;22143;-79
2023/09/14 04:51:28;;;;;;;15.70;6.30;;;;;;;17.24;98.29;100508.78;109802;1284;22236;-79
2023/09/14 04:53:59;;;;;;;19.20;7.80;;;;;;;17.24;98.25;100513.69;109791;1284;22191;-79
2023/09/14 04:56:30;;;;;;;16.80;7.70;;;;;;;17.26;98.28;100517.64;109789;1284;22859;-79
2023/09/14 04:59:02;;;;;;;14.20;5.10;;;;;;;17.28;98.23;100520.61;109779;1284;23184;-80
2023/09/14 05:01:33;;;;;;;16.80;7.00;;;;;;;17.29;98.19;100516.92;109819;1284;23037;-78
2023/09/14 05:04:03;;;;;;;18.80;7.40;;;;;;;17.30;98.29;100522.41;109809;1284;22186;-80
2023/09/14 05:06:34;;;;;;;16.20;7.70;;;;;;;17.32;98.35;100520.39;109724;1284;23041;-78
2023/09/14 05:09:05;;;;;;;15.50;7.30;;;;;;;17.33;98.24;100519.21;109776;1284;22125;-79
2023/09/14 05:11:36;;;;;;;16.30;8.20;;;;;;;17.33;98.34;100527.32;109808;1284;22336;-79
2023/09/14 05:14:06;;;;;;;16.00;7.20;;;;;;;17.33;98.46;100525.00;109813;1277;22215;-78
2023/09/14 05:16:37;;;;;;;22.10;7.90;;;;;;;17.33;98.60;100529.17;109809;1284;22617;-79
2023/09/14 05:19:08;;;;;;;15.00;6.70;;;;;;;17.34;98.56;100530.70;109809;1284;22271;-80
2023/09/14 05:21:39;;;;;;;15.10;6.20;;;;;;;17.34;98.71;100534.45;109816;1284;22302;-80
2023/09/14 05:24:10;;;;;;;17.50;7.70;;;;;;;17.33;98.71;100533.84;109835;1277;23011;-80
2023/09/14 05:26:40;;;;;;;15.40;7.20;;;;;;;17.32;98.88;100534.30;109906;1284;22182;-80
2023/09/14 05:29:11;;;;;;;15.20;7.00;;;;;;;17.29;99.08;100538.10;109917;1284;22195;-79
2023/09/14 05:31:42;;;;;;;14.70;6.50;;;;;;;17.25;99.26;100540.63;109829;1284;22335;-78
2023/09/14 05:34:12;;;;;;;13.30;6.30;;;;;;;17.18;99.46;100539.21;109803;1284;23126;-77
2023/09/14 05:36:43;;;;;;;14.00;6.50;;;;;;;17.12;99.69;100543.60;109797;1273;22826;-77
2023/09/14 05:39:14;;;;;;;17.90;7.10;;;;;;;17.05;99.96;100551.92;109826;1281;22138;-78
2023/09/14 05:41:45;;;;;;;14.50;5.00;;;;;;;16.98;100.00;100556.81;109814;1284;22224;-78
2023/09/14 05:44:16;;;;;;;10.70;3.80;;;;;;;16.90;100.00;100558.92;109857;1284;22194;-81
2023/09/14 05:46:47;;;;;;;8.60;3.00;;;;;;;16.81;100.00;100556.06;109849;1284;22170;-81
2023/09/14 05:49:18;;;;;;;11.70;3.60;;;;;;;16.75;100.00;100562.23;109815;1284;22159;-81
2023/09/14 05:51:49;;;;;;;8.80;2.90;;;;;;;16.68;100.00;100565.30;109792;1284;22161;-78
2023/09/14 05:54:20;;;;;;;9.80;2.60;;;;;;;16.63;100.00;100569.20;109784;1284;22163;-77
2023/09/14 05:56:51;;;;;;;6.40;1.90;;;;;;;16.58;100.00;100572.19;109799;1276;22379;-77
2023/09/14 05:59:22;;;;;;;9.20;2.50;;;;;;;16.52;100.00;100570.69;109787;1284;22152;-77
2023/09/14 06:01:53;;;;;;;9.30;2.60;;;;;;;16.46;100.00;100576.56;109806;1277;22159;-77
2023/09/14 06:04:23;;;;;;;7.50;2.80;;;;;;;16.40;100.00;100579.22;109794;1284;22157;-78
2023/09/14 06:06:54;;;;;;;8.80;3.00;;;;;;;16.35;100.00;100586.34;109775;1284;22986;-78
2023/09/14 06:09:25;;;;;;;12.30;2.90;;;;;;;16.34;100.00;100587.10;109763;1277;22224;-76
2023/09/14 06:11:56;;;;;;;9.10;3.00;;;;;;;16.32;100.00;100591.86;109781;1277;22227;-75
2023/09/14 06:14:27;;;;;;;11.00;3.40;;;;;;;16.31;100.00;100593.18;109797;1284;22355;-76
2023/09/14 06:16:57;;;;;;;9.00;3.60;;;;;;;16.30;100.00;100596.92;109801;1284;23434;-78
2023/09/14 06:19:28;;;;;;;9.80;3.10;;;;;;;16.30;100.00;100597.95;109802;1284;22214;-78
2023/09/14 06:21:59;;;;;;;14.30;4.30;;;;;;;16.30;100.00;100592.78;109806;1284;22156;-78
2023/09/14 06:24:29;;;;;;;10.20;3.80;;;;;;;16.30;100.00;100599.59;109813;1284;22701;-78
2023/09/14 06:27:00;;;;;;;12.40;4.50;;;;;;;16.30;100.00;100601.23;109784;1284;22350;-79
2023/09/14 06:29:31;;;;;;;12.30;3.90;;;;;;;16.29;100.00;100600.52;109807;1284;22206;-78
2023/09/14 06:32:03;;;;;;;11.50;3.50;;;;;;;16.29;100.00;100599.17;109801;1284;23052;-78
2023/09/14 06:34:33;;;;;;;9.10;3.20;;;;;;;16.30;100.00;100602.52;109799;1284;22204;-78
2023/09/14 06:37:04;;;;;;;10.70;3.00;;;;;;;16.30;100.00;100606.05;109805;1284;22196;-78
2023/09/14 06:39:35;;;;;;;8.60;3.10;;;;;;;16.29;100.00;100610.55;109798;1284;22174;-78
2023/09/14 06:42:06;;;;;;;9.70;3.30;;;;;;;16.24;100.00;100614.19;109795;1283;22851;-78
2023/09/14 06:44:37;;;;;;;8.50;3.00;;;;;;;16.22;100.00;100613.87;109788;1284;22326;-79
2023/09/14 06:47:08;;;;;;;8.20;3.00;;;;;;;16.20;100.00;100618.43;109793;1273;22173;-78
2023/09/14 06:49:38;;;;;;;8.20;2.50;;;;;;;16.20;100.00;100618.13;109805;1284;22953;-81
2023/09/14 06:52:09;;;;;;;8.90;2.50;;;;;;;16.19;100.00;100622.73;109793;1280;22245;-79
2023/09/14 06:54:40;;;;;;;9.00;3.60;;;;;;;16.19;100.00;100629.09;109763;1284;22124;-79
2023/09/14 06:57:11;;;;;;;8.80;2.40;;;;;;;16.19;100.00;100631.38;109753;1276;22388;-79
2023/09/14 06:59:41;;;;;;;8.10;2.30;;;;;;;16.17;100.00;100635.11;109799;1284;22184;-79
2023/09/14 07:02:12;;;;;;;8.20;2.50;;;;;;;16.16;100.00;100637.98;109812;1284;22171;-80
2023/09/14 07:04:43;;;;;;;10.50;2.00;;;;;;;16.15;100.00;100643.55;109795;1284;22308;-79
2023/09/14 07:07:14;;;;;;;7.70;2.10;;;;;;;16.13;100.00;100644.98;109792;1284;22284;-79
2023/09/14 07:09:45;;;;;;;6.80;1.80;;;;;;;16.10;100.00;100648.77;109801;1280;23543;-79
2023/09/14 07:12:15;;;;;;;7.20;1.90;;;;;;;16.09;100.00;100654.44;109768;1284;22187;-79
2023/09/14 07:14:46;;;;;;;7.50;2.00;;;;;;;16.07;100.00;100660.73;109786;1283;22503;-79
2023/09/14 07:17:17;;;;;;;8.70;2.10;;;;;;;16.05;100.00;100667.40;109795;1283;22920;-78
2023/09/14 07:19:47;;;;;;;7.70;2.10;;;;;;;16.03;100.00;100666.16;109800;1284;22895;-79
2023/09/14 07:22:19;;;;;;;9.00;1.90;;;;;;;16.04;100.00;100666.52;109799;1284;22733;-79
2023/09/14 07:24:50;;;;;;;8.10;1.80;;;;;;;16.05;100.00;100668.41;109775;1284;22141;-79
2023/09/14 07:27:22;;;;;;;8.90;2.00;;;;;;;16.06;100.00;100671.03;109792;1268;22144;-78
2023/09/14 07:29:53;;;;;;;7.40;1.50;;;;;;;16.10;100.00;100672.39;109821;1268;22160;-79
2023/09/14 07:32:24;;;;;;;10.40;1.90;;;;;;;16.14;100.00;100674.43;109808;1284;22269;-80
2023/09/14 07:34:57;;;;;;;6.30;1.50;;;;;;;16.18;100.00;100681.05;109789;1273;22943;-80
2023/09/14 07:37:28;;;;;;;7.50;1.50;;;;;;;16.21;100.00;100684.91;109791;1284;22237;-79
2023/09/14 07:39:58;;;;;;;10.10;1.90;;;;;;;16.23;100.00;100683.38;109833;1280;22978;-79
2023/09/14 07:42:29;;;;;;;10.40;2.10;;;;;;;16.26;100.00;100689.27;109817;1284;22192;-80
2023/09/14 07:45:00;;;;;;;6.10;1.60;;;;;;;16.28;100.00;100693.42;109761;1276;22354;-79
2023/09/14 07:47:31;;;;;;;12.00;1.60;;;;;;;16.29;100.00;100694.77;109792;1277;23270;-79
2023/09/14 07:50:02;;;;;;;10.40;1.60;;;;;;;16.29;100.00;100697.27;109771;1284;22172;-78
2023/09/14 07:52:32;;;;;;;7.80;1.60;;;;;;;16.31;100.00;100703.17;109810;1283;22157;-80
2023/09/14 07:55:04;;;;;;;10.60;1.70;;;;;;;16.32;100.00;100700.72;109803;1283;22219;-79
2023/09/14 07:57:35;;;;;;;5.60;1.50;;;;;;;16.36;100.00;100704.63;109772;1276;22339;-81
2023/09/14 08:00:08;;;;;;;6.30;1.50;;;;;;;16.40;100.00;100706.02;106914;1276;22546;-79
2023/09/14 08:02:39;;;;;;;12.60;1.70;;;;;;;16.41;100.00;100703.67;109778;1284;22129;-79
2023/09/14 08:05:11;;;;;;;12.40;1.90;;;;;;;16.44;100.00;100702.85;109794;1277;22188;-80
2023/09/14 08:07:41;;;;;;;6.50;1.80;;;;;;;16.49;100.00;100703.90;109806;1276;22154;-80
2023/09/14 08:10:13;;;;;;;10.60;2.50;;;;;;;16.52;100.00;100711.92;109776;1284;23172;-80
2023/09/14 08:12:43;;;;;;;8.90;1.80;;;;;;;16.53;100.00;100711.91;109817;1284;22224;-79
2023/09/14 08:15:15;;;;;;;12.30;1.80;;;;;;;16.54;100.00;100714.84;109780;1284;22335;-80
2023/09/14 08:17:46;;;;;;;12.50;2.90;;;;;;;16.58;100.00;100717.06;109802;1284;22145;-79
2023/09/14 08:20:17;;;;;;;11.00;1.80;;;;;;;16.63;100.00;100721.27;109796;1284;22185;-79
2023/09/14 08:22:49;;;;;;;9.10;2.30;;;;;;;16.66;100.00;100719.79;109803;1284;22293;-79
2023/09/14 08:25:19;;;;;;;8.20;2.00;;;;;;;16.70;100.00;100721.89;109805;1280;22945;-79
2023/09/14 08:27:50;;;;;;;12.60;2.50;;;;;;;16.76;100.00;100723.04;109843;1284;22322;-80
2023/09/14 08:30:22;;;;;;;8.90;1.90;;;;;;;16.80;100.00;100726.89;109825;1284;22258;-79
2023/09/14 08:32:53;;;;;;;9.30;2.10;;;;;;;16.85;100.00;100729.00;109801;1284;22763;-80
2023/09/14 08:35:25;;;;;;;11.00;2.20;;;;;;;16.92;100.00;100731.10;109819;1284;22181;-80
2023/09/14 08:37:56;;;;;;;10.60;2.20;;;;;;;17.01;100.00;100732.39;109817;1284;22178;-79
2023/09/14 08:40:28;;;;;;;13.40;2.60;;;;;;;17.10;100.00;100737.99;109829;1280;22192;-79
2023/09/14 08:43:00;;;;;;;11.90;2.40;;;;;;;17.18;100.00;100741.17;109827;1284;22185;-78
2023/09/14 08:45:32;;;;;;;9.80;2.10;;;;;;;17.22;100.00;100741.13;109817;1284;22278;-79
2023/09/14 08:48:05;;;;;;;11.60;2.40;;;;;;;17.28;99.88;100736.86;109808;1284;22207;-80
2023/09/14 08:50:39;;;;;;;7.50;2.20;;;;;;;17.39;100.00;100743.78;109827;1283;22670;-80
2023/09/14 08:53:11;;;;;;;9.10;2.40;;;;;;;17.44;98.39;100738.80;109789;1277;22197;-81
2023/09/14 08:55:43;;;;;;;8.10;2.10;;;;;;;17.45;98.71;100742.75;109799;1284;22323;-80
2023/09/14 08:58:15;;;;;;;9.30;1.90;;;;;;;17.46;98.20;100743.02;109830;1284;22194;-79
2023/09/14 09:00:47;;;;;;;10.10;1.60;;;;;;;17.49;97.74;100740.65;109830;1284;22341;-79
2023/09/14 09:03:18;;;;;;;8.00;2.10;;;;;;;17.53;98.22;100743.23;109816;1283;22265;-80
2023/09/14 09:05:50;;;;;;;8.30;1.70;;;;;;;17.63;98.00;100746.05;109819;1277;22326;-79
2023/09/14 09:08:21;;;;;;;10.30;1.90;;;;;;;17.72;96.63;100743.46;109820;1284;22174;-78
2023/09/14 09:10:52;;;;;;;11.10;1.80;;;;;;;17.77;96.40;100744.84;109821;1284;22150;-78
2023/09/14 09:13:23;;;;;;;10.80;2.10;;;;;;;17.76;94.80;100747.71;109851;1284;22148;-77
2023/09/14 09:15:53;;;;;;;6.40;1.80;;;;;;;17.72;94.50;100750.76;109838;1282;22199;-79
2023/09/14 09:18:24;;;;;;;7.90;1.80;;;;;;;17.65;94.47;100748.20;109908;1284;22505;-78
2023/09/14 09:20:55;;;;;;;6.40;1.30;;;;;;;17.61;94.03;100749.64;109913;1280;22153;-79
2023/09/14 09:23:28;;;;;;;10.10;1.90;;;;;;;17.60;94.93;100746.81;109794;1282;22168;-81
2023/09/14 09:26:00;;;;;;;8.40;1.60;;;;;;;17.64;94.85;100748.45;109794;1284;22246;-79
2023/09/14 09:28:31;;;;;;;7.40;1.80;;;;;;;17.65;93.78;100749.89;109755;1283;22233;-79
2023/09/14 09:31:03;;;;;;;8.70;2.10;;;;;;;17.68;94.05;100746.20;109814;1284;22179;-78
2023/09/14 09:33:38;;;;;;;11.20;1.80;;;;;;;17.69;93.86;100746.23;109824;1284;22192;-77
2023/09/14 09:36:18;;;;;;;7.30;1.50;;;;;;;17.72;94.22;100748.18;109805;1284;22175;-79
2023/09/14 09:38:54;;;;;;;8.10;1.70;;;;;;;17.72;92.79;100751.38;109802;1284;22204;-77
2023/09/14 09:41:25;;;;;;;8.90;2.10;;;;;;;17.67;92.32;100754.71;109799;1276;22199;-78
2023/09/14 09:43:55;;;;;;;7.00;1.90;;;;;;;17.65;92.24;100751.88;109799;1281;22226;-80
2023/09/14 09:46:27;;;;;;;7.20;1.90;;;;;;;17.67;91.89;100751.17;109798;1284;23051;-78
2023/09/14 09:48:58;;;;;;;7.50;1.40;;;;;;;17.68;90.75;100755.02;109832;1284;22162;-79
2023/09/14 09:51:29;;;;;;;10.00;1.70;;;;;;;17.69;90.54;100749.11;109841;1284;22171;-78
2023/09/14 09:54:08;;;;;;;6.80;2.00;;;;;;;17.71;90.37;100753.98;109806;1284;22191;-80
2023/09/14 09:56:39;;;;;;;6.70;1.30;;;;;;;17.73;90.38;100747.88;109824;1284;22476;-81
2023/09/14 09:59:15;;;;;;;7.60;1.80;;;;;;;17.74;89.83;100751.36;109814;1284;22869;-81
2023/09/14 10:01:48;;;;;;;7.80;1.50;;;;;;;17.74;90.29;100751.05;109813;1284;22331;-81
2023/09/14 10:04:19;;;;;;;6.60;1.50;;;;;;;17.75;90.76;100751.82;109807;1280;22261;-80
2023/09/14 10:06:55;;;;;;;6.60;1.50;;;;;;;17.77;89.67;100745.55;109682;1284;190474;-82
2023/09/14 10:09:33;;;;;;;10.70;1.60;;;;;;;17.80;90.31;100743.90;109842;1273;22892;-82
2023/09/14 10:12:05;;;;;;;7.20;1.60;;;;;;;17.83;89.50;100746.27;109819;1284;22174;-81
2023/09/14 10:14:38;;;;;;;8.20;1.50;;;;;;;17.88;89.27;100747.07;109802;1284;22217;-80
2023/09/14 10:17:12;;;;;;;13.20;1.80;;;;;;;17.95;89.01;100740.89;109843;1284;22249;-80
2023/09/14 10:19:47;;;;;;;6.70;1.40;;;;;;;18.02;88.57;100745.08;109790;1283;22148;-82
2023/09/14 10:22:20;;;;;;;8.90;2.20;;;;;;;18.08;88.59;100745.17;109834;1270;22871;-81
2023/09/14 10:24:51;;;;;;;6.00;1.70;;;;;;;18.10;87.78;100745.56;109824;1283;22229;-80
2023/09/14 10:27:23;;;;;;;7.20;1.40;;;;;;;18.10;86.94;100749.41;109816;1283;22235;-81
2023/09/14 10:29:56;;;;;;;7.80;1.50;;;;;;;18.17;87.23;100748.25;109838;1284;22168;-80
2023/09/14 10:32:27;;;;;;;10.70;1.70;;;;;;;18.24;86.49;100748.34;109804;1284;22138;-81
2023/09/14 10:35:01;;;;;;;5.70;1.40;;;;;;;18.28;86.74;100743.08;109799;1277;22310;-81
2023/09/14 10:37:34;;;;;;;7.10;1.80;;;;;;;18.29;86.79;100746.70;109863;1284;22643;-80
2023/09/14 10:40:08;;;;;;;7.40;1.30;;;;;;;18.30;86.71;100750.98;109836;1283;22212;-79
2023/09/14 10:42:39;;;;;;;6.10;1.30;;;;;;;18.28;86.04;100757.25;109843;1284;22171;-80
2023/09/14 10:45:13;;;;;;;7.80;1.70;;;;;;;18.22;85.33;100760.92;109837;1284;22180;-81
2023/09/14 10:47:46;;;;;;;6.10;1.50;;;;;;;18.15;85.11;100762.23;109794;1276;22187;-79
2023/09/14 10:50:22;;;;;;;7.70;1.60;;;;;;;18.07;85.57;100758.20;109824;1283;22141;-79
2023/09/14 10:52:54;;;;;;;7.40;1.40;;;;;;;18.05;85.96;100762.38;109832;1284;22218;-81
2023/09/14 10:55:27;;;;;;;7.30;1.70;;;;;;;18.03;86.06;100762.02;109793;1277;22181;-79
2023/09/14 10:57:58;;;;;;;10.70;1.70;;;;;;;18.02;86.21;100758.94;109815;1283;23059;-80
2023/09/14 11:00:38;;;;;;;8.00;1.80;;;;;;;18.03;86.12;100758.68;109801;1284;22617;-83
2023/09/14 11:03:10;;;;;;;4.90;1.30;;;;;;;18.07;85.57;100768.43;109833;1283;22908;-79
2023/09/14 11:05:46;;;;;;;6.70;1.60;;;;;;;18.08;85.26;100770.34;109827;1284;22244;-82
2023/09/14 11:08:19;;;;;;;7.10;1.40;;;;;;;18.05;85.11;100769.26;109804;1283;22796;-83
2023/09/14 11:11:00;;;;;;;6.90;1.60;;;;;;;18.02;84.92;100774.91;109823;1278;22194;-80
2023/09/14 11:13:33;;;;;;;11.40;1.40;;;;;;;17.99;84.69;100775.54;109812;1284;22178;-82
2023/09/14 11:16:17;;;;;;;10.40;1.60;;;;;;;17.96;83.96;100776.27;109801;1284;22231;-81
2023/09/14 11:18:56;;;;;;;6.30;1.40;;;;;;;17.96;84.05;100772.41;109830;1284;22620;-83
2023/09/14 11:21:45;;;;;;;7.40;1.20;;;;;;;17.98;83.04;100776.05;109781;1284;22348;-82
2023/09/14 11:24:16;;;;;;;8.30;1.30;;;;;;;18.00;82.95;100772.10;109802;1284;22768;-81
2023/09/14 11:26:50;;;;;;;6.40;1.20;;;;;;;18.05;83.06;100772.70;109788;1276;22151;-82
2023/09/14 11:29:24;;;;;;;8.80;1.30;;;;;;;18.11;83.31;100776.08;109812;1284;22135;-80
2023/09/14 11:32:00;;;;;;;6.80;1.30;;;;;;;18.18;83.47;100773.58;109798;1284;22963;-83